Time;durP1;ratioP1;P1;durP2;ratioP2;P2;SDS_P1;SDS_P2;PMS_P1;PMS_P2;Temp;Humidity;BMP_temperature;BMP_pressure;BME280_temperature;BME280_humidity;BME280_pressure;Samples;Min_cycle;Max_cycle;Signal;HPM_P1;HPM_P2
2022/10/01 00:01:01;;;;;;;3.50;2.53;;;;;;;6.52;100.00;101292.84;5035915;28;20552;-75
2022/10/01 00:03:28;;;;;;;3.17;2.57;;;;;;;6.63;100.00;101291.97;5038032;28;20570;-76
2022/10/01 00:06:21;;;;;;;3.67;2.80;;;;;;;6.71;100.00;101286.06;5017268;28;20048;-76
2022/10/01 00:08:49;;;;;;;5.73;2.80;;;;;;;6.82;100.00;101293.97;5034442;28;20045;-75
2022/10/01 00:11:24;;;;;;;4.68;2.30;;;;;;;6.94;100.00;101295.63;5034464;28;20408;-73
2022/10/01 00:13:51;;;;;;;4.93;2.60;;;;;;;6.98;100.00;101280.31;5016603;28;20045;-77
2022/10/01 00:16:20;;;;;;;6.73;2.53;;;;;;;7.12;100.00;101287.94;5035015;28;20034;-76
2022/10/01 00:18:47;;;;;;;5.45;2.60;;;;;;;7.20;100.00;101297.91;5034776;28;20556;-74
2022/10/01 00:21:21;;;;;;;7.93;3.90;;;;;;;7.26;100.00;101302.72;5034644;28;20039;-74
2022/10/01 00:23:48;;;;;;;8.93;3.57;;;;;;;7.29;100.00;101297.16;5034318;28;20509;-76
2022/10/01 00:26:16;;;;;;;5.10;3.03;;;;;;;7.30;100.00;101297.03;5034326;28;20049;-75
2022/10/01 00:28:45;;;;;;;3.92;2.72;;;;;;;7.33;100.00;101298.56;5034763;28;20045;-75
2022/10/01 00:31:12;;;;;;;2.95;2.42;;;;;;;7.39;100.00;101306.00;5033468;28;20120;-73
2022/10/01 00:33:38;;;;;;;3.47;2.00;;;;;;;7.42;100.00;101303.09;5033741;28;20029;-76
2022/10/01 00:36:05;;;;;;;3.10;2.20;;;;;;;7.49;100.00;101304.25;5033953;28;20428;-75
2022/10/01 00:38:32;;;;;;;3.10;1.80;;;;;;;7.56;100.00;101300.13;5033695;28;20433;-75
2022/10/01 00:40:59;;;;;;;3.33;2.17;;;;;;;7.64;100.00;101302.97;5015832;28;20033;-75
2022/10/01 00:43:28;;;;;;;2.30;1.90;;;;;;;7.66;100.00;101303.66;5034675;28;20056;-73
2022/10/01 00:46:00;;;;;;;3.17;2.00;;;;;;;7.72;100.00;101311.09;5034459;28;20079;-75
2022/10/01 00:48:38;;;;;;;6.40;2.07;;;;;;;7.73;100.00;101307.47;5016074;28;20052;-75
2022/10/01 00:51:05;;;;;;;2.83;2.50;;;;;;;7.70;100.00;101306.91;5033680;28;20489;-76
2022/10/01 00:53:31;;;;;;;5.23;2.30;;;;;;;7.73;100.00;101310.13;5033964;28;20076;-73
2022/10/01 00:55:58;;;;;;;9.83;3.30;;;;;;;7.75;100.00;101313.47;5032948;28;20033;-73
2022/10/01 00:58:25;;;;;;;8.37;3.77;;;;;;;7.79;100.00;101319.34;5033584;28;20484;-75
2022/10/01 01:00:54;;;;;;;5.90;3.60;;;;;;;7.79;100.00;101314.06;5033306;28;20390;-75
2022/10/01 01:03:20;;;;;;;8.13;3.50;;;;;;;7.85;100.00;101315.38;5033487;28;20056;-75
2022/10/01 01:05:46;;;;;;;5.43;3.47;;;;;;;7.88;100.00;101317.75;5031928;28;20037;-75
2022/10/01 01:08:13;;;;;;;10.60;5.03;;;;;;;7.90;100.00;101318.47;5033212;28;20038;-75
2022/10/01 01:10:48;;;;;;;7.93;4.10;;;;;;;7.88;100.00;101315.94;5033035;28;20060;-73
2022/10/01 01:13:26;;;;;;;9.47;3.90;;;;;;;7.87;100.00;101321.38;5033775;28;20069;-74
2022/10/01 01:16:05;;;;;;;5.38;3.05;;;;;;;7.90;100.00;101326.41;5033540;28;20034;-75
2022/10/01 01:18:30;;;;;;;;;;;;;;;7.95;100.00;101330.34;5033941;28;20140;-73
2022/10/01 01:20:58;;;;;;;5.43;2.60;;;;;;;7.91;100.00;101326.28;5033245;28;19956;-75
2022/10/01 01:23:58;;;;;;;2.92;2.28;;;;;;;7.89;100.00;101333.53;5032965;28;20052;-74
2022/10/01 01:26:53;;;;;;;3.03;2.43;;;;;;;7.89;100.00;101338.84;5033126;28;20037;-74
2022/10/01 01:29:19;;;;;;;3.77;2.60;;;;;;;7.81;100.00;101332.50;5032668;28;20504;-74
2022/10/01 01:31:46;;;;;;;2.67;2.47;;;;;;;7.82;100.00;101334.19;5033101;28;20038;-76
2022/10/01 01:34:18;;;;;;;3.80;2.10;;;;;;;7.80;100.00;101330.81;5032521;28;20041;-75
2022/10/01 01:36:50;;;;;;;2.53;2.30;;;;;;;7.78;100.00;101330.94;5033225;28;20038;-75
2022/10/01 01:39:17;;;;;;;3.33;2.37;;;;;;;7.77;100.00;101330.09;5033106;28;20041;-74
2022/10/01 01:41:50;;;;;;;2.60;1.93;;;;;;;7.84;100.00;101334.91;5034381;28;20091;-74
2022/10/01 01:44:22;;;;;;;4.47;2.00;;;;;;;7.82;100.00;101339.50;5056038;28;20160;-75
2022/10/01 01:46:50;;;;;;;3.83;2.07;;;;;;;7.71;100.00;101314.72;5056003;28;20048;-75
2022/10/01 01:49:19;;;;;;;2.30;2.10;;;;;;;7.82;100.00;101332.38;5056778;28;20041;-75
2022/10/01 01:51:55;;;;;;;2.22;2.03;;;;;;;7.86;100.00;101339.09;5039341;28;20063;-75
2022/10/01 01:54:21;;;;;;;3.17;2.43;;;;;;;7.89;100.00;101335.34;5050640;28;20092;-78
2022/10/01 01:56:48;;;;;;;3.30;3.00;;;;;;;7.88;100.00;101336.31;5034054;28;20558;-73
2022/10/01 01:59:15;;;;;;;7.33;3.10;;;;;;;7.90;100.00;101334.38;5036880;28;20060;-75
2022/10/01 02:01:45;;;;;;;7.27;2.40;;;;;;;7.92;100.00;101335.06;5019926;28;20050;-74
2022/10/01 02:04:20;;;;;;;3.03;2.73;;;;;;;7.95;100.00;101340.97;5019637;28;20042;-76
2022/10/01 02:06:57;;;;;;;3.13;2.37;;;;;;;7.95;100.00;101334.81;5013430;28;20033;-74
2022/10/01 02:09:32;;;;;;;3.43;2.30;;;;;;;7.92;100.00;101321.81;5013234;28;20057;-75
2022/10/01 02:12:30;;;;;;;2.87;2.40;;;;;;;7.84;100.00;101311.88;5016636;28;20041;-74
2022/10/01 02:15:07;;;;;;;4.03;2.22;;;;;;;7.92;100.00;101329.78;5015401;28;20044;-74
2022/10/01 02:17:33;;;;;;;6.20;2.70;;;;;;;7.89;100.00;101322.09;5012559;28;20485;-74
2022/10/01 02:20:12;;;;;;;2.93;2.27;;;;;;;7.90;100.00;101324.59;5027968;28;20096;-74
2022/10/01 02:22:48;;;;;;;2.97;2.60;;;;;;;7.89;100.00;101324.75;5045803;28;20400;-75
2022/10/01 02:25:17;;;;;;;3.20;2.63;;;;;;;7.86;100.00;101322.34;5050112;28;20436;-75
2022/10/01 02:28:00;;;;;;;3.47;3.17;;;;;;;7.93;100.00;101334.09;5051931;28;20459;-76
2022/10/01 02:30:28;;;;;;;4.17;3.50;;;;;;;7.92;100.00;101324.47;5052879;28;20076;-76
2022/10/01 02:32:58;;;;;;;2.88;2.67;;;;;;;7.91;100.00;101326.28;5052521;28;20503;-76
2022/10/01 02:35:26;;;;;;;3.10;2.63;;;;;;;7.91;100.00;101330.75;5052054;28;20462;-74
2022/10/01 02:37:55;;;;;;;5.20;3.22;;;;;;;7.89;100.00;101316.78;5052550;28;20037;-74
2022/10/01 02:40:25;;;;;;;4.55;2.83;;;;;;;7.69;100.00;101289.31;5051932;28;20496;-74
2022/10/01 02:42:59;;;;;;;4.33;2.60;;;;;;;7.86;100.00;101323.19;5051785;28;20044;-77
2022/10/01 02:45:26;;;;;;;4.63;3.13;;;;;;;7.92;100.00;101332.44;5052254;28;20119;-76
2022/10/01 02:48:16;;;;;;;5.03;3.40;;;;;;;7.94;100.00;101347.22;5055252;28;20127;-73
2022/10/01 02:50:52;;;;;;;3.53;3.00;;;;;;;7.90;100.00;101340.50;5055621;28;20045;-74
2022/10/01 02:53:24;;;;;;;4.77;2.97;;;;;;;7.92;100.00;101332.44;5055986;28;20098;-74
2022/10/01 02:55:51;;;;;;;5.33;3.03;;;;;;;7.90;100.00;101340.50;5055608;28;20086;-76
2022/10/01 02:58:18;;;;;;;5.47;3.50;;;;;;;7.89;100.00;101338.84;5054366;28;20095;-75
2022/10/01 03:00:46;;;;;;;9.07;3.63;;;;;;;7.81;100.00;101320.09;5061485;28;20553;-76
2022/10/01 03:03:12;;;;;;;4.88;3.20;;;;;;;7.95;100.00;101364.00;5057618;28;20044;-74
2022/10/01 03:05:37;;;;;;;4.73;3.50;;;;;;;7.95;100.00;101348.06;5075483;28;20441;-74
2022/10/01 03:08:02;;;;;;;7.17;4.40;;;;;;;7.95;100.00;101342.78;5075551;28;20373;-74
2022/10/01 03:10:28;;;;;;;7.27;3.87;;;;;;;7.83;100.00;101349.13;5058351;28;20055;-73
2022/10/01 03:12:54;;;;;;;6.17;4.67;;;;;;;7.73;100.00;101346.41;5075311;28;20472;-74
2022/10/01 03:15:20;;;;;;;5.30;4.80;;;;;;;7.76;100.00;101351.44;5075886;28;20067;-75
2022/10/01 03:17:49;;;;;;;5.53;4.47;;;;;;;7.78;100.00;101347.69;5076012;28;20032;-75
2022/10/01 03:20:15;;;;;;;9.20;4.93;;;;;;;7.81;100.00;101345.78;5075780;28;20483;-73
2022/10/01 03:22:43;;;;;;;8.30;4.73;;;;;;;7.71;100.00;101346.53;5075682;28;20040;-73
2022/10/01 03:25:09;;;;;;;8.70;5.80;;;;;;;7.66;100.00;101342.59;5075404;28;20399;-74
2022/10/01 03:27:34;;;;;;;5.53;5.03;;;;;;;7.73;100.00;101357.00;5075607;28;20037;-76
2022/10/01 03:30:00;;;;;;;6.13;5.60;;;;;;;7.70;100.00;101344.84;5075449;28;20424;-74
2022/10/01 03:32:25;;;;;;;9.20;5.57;;;;;;;7.76;100.00;101360.22;5075111;28;20032;-73
2022/10/01 03:34:51;;;;;;;7.37;6.20;;;;;;;7.74;100.00;101356.88;5075228;28;20033;-77
2022/10/01 03:37:16;;;;;;;7.80;5.70;;;;;;;7.77;100.00;101351.31;5075511;28;20062;-75
2022/10/01 03:39:42;;;;;;;7.53;6.77;;;;;;;7.81;100.00;101364.34;5075420;28;20407;-76
2022/10/01 03:42:07;;;;;;;9.90;6.93;;;;;;;7.78;100.00;101366.25;5057195;28;20486;-76
2022/10/01 03:44:33;;;;;;;8.57;6.67;;;;;;;7.55;100.00;101332.91;5075448;28;20062;-74
2022/10/01 03:46:58;;;;;;;8.27;6.37;;;;;;;7.80;100.00;101374.06;5056933;28;20028;-73
2022/10/01 03:49:24;;;;;;;7.97;6.80;;;;;;;7.81;100.00;101380.25;5075071;28;20043;-73
2022/10/01 03:51:49;;;;;;;11.80;7.37;;;;;;;7.70;100.00;101365.22;5074907;28;20162;-73
2022/10/01 03:54:16;;;;;;;9.90;7.13;;;;;;;7.80;100.00;101386.50;5075199;28;20043;-73
2022/10/01 03:56:42;;;;;;;8.47;7.10;;;;;;;7.75;100.00;101379.75;5074879;28;20043;-74
2022/10/01 03:59:09;;;;;;;8.07;7.23;;;;;;;7.71;100.00;101375.69;5074267;28;20404;-74
2022/10/01 04:01:38;;;;;;;10.23;7.60;;;;;;;7.62;100.00;101370.34;5075152;28;20056;-74
2022/10/01 04:04:04;;;;;;;9.43;7.88;;;;;;;7.53;100.00;101374.59;5074876;28;20044;-76
2022/10/01 04:06:30;;;;;;;9.90;7.60;;;;;;;7.38;100.00;101379.34;5057011;28;20036;-73
2022/10/01 04:08:56;;;;;;;10.77;7.73;;;;;;;7.23;100.00;101372.69;5074672;28;20029;-74
2022/10/01 04:11:21;;;;;;;12.23;7.43;;;;;;;7.02;100.00;101362.03;5074165;28;20028;-73
2022/10/01 04:13:47;;;;;;;12.27;8.60;;;;;;;6.97;100.00;101382.75;5074184;28;20036;-75
2022/10/01 04:16:14;;;;;;;11.30;8.57;;;;;;;6.91;100.00;101383.22;5073830;28;20166;-73
2022/10/01 04:18:40;;;;;;;10.73;8.67;;;;;;;6.84;100.00;101390.81;5075110;28;20040;-74
2022/10/01 04:21:05;;;;;;;13.03;8.63;;;;;;;6.76;100.00;101377.38;5075376;28;20032;-76
2022/10/01 04:23:31;;;;;;;22.40;9.47;;;;;;;6.73;100.00;101392.66;5056451;28;20032;-75
2022/10/01 04:26:01;;;;;;;11.23;8.83;;;;;;;6.69;100.00;101384.13;5073782;28;20041;-75
2022/10/01 04:28:27;;;;;;;16.03;10.70;;;;;;;6.69;100.00;101383.28;5073616;28;20032;-74
2022/10/01 04:31:23;;;;;;;14.13;10.03;;;;;;;6.65;100.00;101387.13;5073580;28;20032;-75
2022/10/01 04:33:38;;;;;;;14.63;10.43;;;;;;;6.67;100.00;101395.81;5073796;28;20043;-75
2022/10/01 04:36:03;;;;;;;12.90;9.73;;;;;;;6.72;100.00;101388.34;5073615;28;20029;-74
2022/10/01 04:38:30;;;;;;;11.73;9.43;;;;;;;6.77;100.00;101402.03;5055688;28;20043;-74
2022/10/01 04:40:55;;;;;;;12.60;10.67;;;;;;;6.75;100.00;101402.16;5077641;28;20029;-76
2022/10/01 04:43:21;;;;;;;10.83;9.60;;;;;;;6.78;100.00;101404.56;5083445;28;20043;-76
2022/10/01 04:45:46;;;;;;;13.23;10.73;;;;;;;6.74;100.00;101399.63;5068483;28;20041;-77
2022/10/01 04:48:12;;;;;;;11.77;9.83;;;;;;;6.76;100.00;101397.72;5067539;28;20036;-77
2022/10/01 04:50:37;;;;;;;16.20;9.10;;;;;;;6.69;100.00;101391.22;5084635;28;20064;-75
2022/10/01 04:53:28;;;;;;;12.17;9.83;;;;;;;6.73;100.00;101403.25;5070940;28;20059;-77
2022/10/01 04:55:54;;;;;;;14.37;9.73;;;;;;;6.73;100.00;101411.19;5083957;28;20040;-74
2022/10/01 04:58:19;;;;;;;12.60;9.93;;;;;;;6.71;100.00;101402.53;5084355;28;20028;-73
2022/10/01 05:00:45;;;;;;;11.83;10.40;;;;;;;6.71;100.00;101405.19;5062364;28;20053;-75
2022/10/01 05:03:10;;;;;;;15.13;9.67;;;;;;;6.74;100.00;101407.59;5073576;28;20519;-74
2022/10/01 05:05:36;;;;;;;15.43;10.37;;;;;;;6.72;100.00;101407.72;5073067;28;20487;-74
2022/10/01 05:08:03;;;;;;;12.53;9.67;;;;;;;6.76;100.00;101418.88;5073085;28;20055;-75
2022/10/01 05:10:30;;;;;;;11.93;9.13;;;;;;;6.72;100.00;101414.81;5072655;28;20049;-74
2022/10/01 05:12:56;;;;;;;13.57;9.80;;;;;;;6.79;100.00;101421.28;5073546;28;20101;-75
2022/10/01 05:15:22;;;;;;;13.83;9.90;;;;;;;6.78;100.00;101420.44;5076094;28;20106;-74
2022/10/01 05:17:47;;;;;;;12.73;9.43;;;;;;;6.87;100.00;101429.44;5073676;28;20495;-76
2022/10/01 05:20:19;;;;;;;15.93;9.63;;;;;;;6.96;100.00;101418.16;5054961;28;20076;-75
2022/10/01 05:22:46;;;;;;;14.27;8.90;;;;;;;6.86;100.00;101398.66;5072655;28;20032;-74
2022/10/01 05:25:12;;;;;;;16.07;8.80;;;;;;;6.95;100.00;101421.75;5054917;28;20111;-74
2022/10/01 05:27:39;;;;;;;11.87;9.70;;;;;;;6.98;100.00;101434.75;5054684;28;20589;-75
2022/10/01 05:30:07;;;;;;;16.13;9.33;;;;;;;6.97;100.00;101430.41;5055862;28;20034;-76
2022/10/01 05:32:33;;;;;;;13.00;10.03;;;;;;;6.97;100.00;101429.59;5072645;28;20037;-76
2022/10/01 05:34:59;;;;;;;12.37;10.17;;;;;;;7.02;100.00;101432.69;5054501;28;20043;-75
2022/10/01 05:37:24;;;;;;;13.33;10.00;;;;;;;7.02;100.00;101433.53;5072915;28;20040;-74
2022/10/01 05:39:50;;;;;;;15.57;11.63;;;;;;;7.06;100.00;101434.97;5073323;28;20033;-74
2022/10/01 05:42:15;;;;;;;18.57;11.03;;;;;;;7.14;100.00;101437.84;5073076;28;20035;-73
2022/10/01 05:44:44;;;;;;;15.80;12.37;;;;;;;7.04;100.00;101415.72;5054856;28;20119;-74
2022/10/01 05:47:12;;;;;;;16.57;10.33;;;;;;;7.18;100.00;101443.72;5073316;28;20036;-76
2022/10/01 05:49:43;;;;;;;15.73;11.17;;;;;;;7.19;100.00;101433.97;5073550;28;20036;-75
2022/10/01 05:52:10;;;;;;;15.60;10.53;;;;;;;7.32;100.00;101439.97;5073328;28;20070;-74
2022/10/01 05:54:36;;;;;;;14.70;10.40;;;;;;;7.39;100.00;101425.25;5078337;28;20044;-74
2022/10/01 05:57:02;;;;;;;15.47;11.37;;;;;;;7.54;100.00;101437.25;5085544;28;20032;-76
2022/10/01 05:59:31;;;;;;;15.40;11.50;;;;;;;7.64;100.00;101427.56;5074843;28;20048;-75
2022/10/01 06:01:58;;;;;;;15.02;9.70;;;;;;;7.77;100.00;101430.00;5076358;28;20056;-74
2022/10/01 06:04:24;;;;;;;11.97;9.63;;;;;;;7.90;100.00;101430.69;5074691;28;20095;-75
2022/10/01 06:06:50;;;;;;;14.53;10.13;;;;;;;8.00;100.00;101426.28;5075111;28;20270;-74
2022/10/01 06:09:15;;;;;;;13.90;10.23;;;;;;;8.02;100.00;101418.19;5086924;28;20044;-73
2022/10/01 06:11:41;;;;;;;12.83;10.10;;;;;;;8.09;100.00;101419.34;5087971;28;20036;-74
2022/10/01 06:14:07;;;;;;;15.77;9.77;;;;;;;8.13;100.00;101428.75;5086628;28;20400;-73
2022/10/01 06:16:32;;;;;;;16.53;11.83;;;;;;;8.01;100.00;101405.91;5066180;28;20527;-74
2022/10/01 06:18:58;;;;;;;16.70;11.23;;;;;;;8.02;100.00;101419.03;5076835;28;20075;-76
2022/10/01 06:21:25;;;;;;;17.10;10.63;;;;;;;7.98;100.00;101425.56;5077688;28;20032;-72
2022/10/01 06:23:51;;;;;;;12.97;10.00;;;;;;;7.98;100.00;101427.38;5082148;28;20045;-74
2022/10/01 06:26:17;;;;;;;17.90;10.83;;;;;;;7.94;100.00;101410.03;5086991;28;20040;-73
2022/10/01 06:28:43;;;;;;;14.97;10.47;;;;;;;8.07;100.00;101418.63;5077263;28;20054;-75
2022/10/01 06:31:08;;;;;;;13.37;10.80;;;;;;;8.11;100.00;101425.38;5076989;28;20456;-74
2022/10/01 06:33:34;;;;;;;15.17;10.87;;;;;;;8.17;100.00;101411.59;5076809;28;20547;-75
2022/10/01 06:36:00;;;;;;;17.60;10.63;;;;;;;8.30;99.82;101422.81;5081592;28;20138;-74
2022/10/01 06:38:26;;;;;;;13.90;10.67;;;;;;;8.31;98.91;101394.47;5084111;28;20043;-74
2022/10/01 06:40:52;;;;;;;17.13;11.87;;;;;;;8.48;98.45;101420.44;5045778;28;20441;-75
2022/10/01 06:43:18;;;;;;;14.50;10.13;;;;;;;8.53;98.26;101422.69;5056897;28;20049;-75
2022/10/01 06:45:43;;;;;;;14.07;10.13;;;;;;;8.52;98.13;101405.91;5063994;28;20033;-76
2022/10/01 06:48:13;;;;;;;16.40;12.03;;;;;;;8.37;96.98;101376.22;5065642;28;20036;-74
2022/10/01 06:50:40;;;;;;;15.23;12.33;;;;;;;8.66;97.13;101407.34;5062932;28;20055;-74
2022/10/01 06:53:05;;;;;;;15.50;11.73;;;;;;;8.71;96.34;101414.94;5065458;28;20551;-74
2022/10/01 06:55:33;;;;;;;16.40;11.43;;;;;;;8.68;96.64;101413.41;5067029;28;20041;-74
2022/10/01 06:58:05;;;;;;;15.97;10.87;;;;;;;8.58;96.14;101410.69;5067672;28;20047;-74
2022/10/01 07:00:34;;;;;;;15.90;11.50;;;;;;;8.62;96.14;101421.88;5034826;28;20049;-75
2022/10/01 07:02:59;;;;;;;;;;;;;;;8.73;96.99;101424.47;5064287;28;20101;-73
2022/10/01 07:05:26;;;;;;;19.87;11.43;;;;;;;8.70;96.13;101432.69;5064198;28;19944;-74
2022/10/01 07:07:52;;;;;;;13.77;10.80;;;;;;;8.68;96.59;101429.34;5068180;28;20040;-73
2022/10/01 07:10:22;;;;;;;17.03;12.73;;;;;;;8.65;96.18;101427.75;5045164;28;20041;-73
2022/10/01 07:12:48;;;;;;;15.63;10.97;;;;;;;8.66;96.55;101423.28;5055626;28;20124;-76
2022/10/01 07:15:15;;;;;;;13.07;10.40;;;;;;;8.75;96.05;101424.31;5038334;28;20544;-74
2022/10/01 07:17:47;;;;;;;13.37;10.13;;;;;;;8.86;96.35;101429.53;5055922;28;20044;-74
2022/10/01 07:20:13;;;;;;;14.70;11.13;;;;;;;8.91;94.96;101417.50;5037587;28;20044;-75
2022/10/01 07:22:43;;;;;;;18.47;10.87;;;;;;;9.07;95.23;101419.66;5037325;28;20033;-77
2022/10/01 07:25:09;;;;;;;14.73;10.60;;;;;;;9.30;94.25;101437.03;5054832;28;20140;-74
2022/10/01 07:27:36;;;;;;;12.37;10.60;;;;;;;9.46;93.23;101439.16;5036902;28;20174;-74
2022/10/01 07:30:03;;;;;;;12.43;9.30;;;;;;;9.65;91.69;101442.81;5037077;28;20039;-72
2022/10/01 07:32:30;;;;;;;10.93;8.47;;;;;;;9.82;90.73;101444.75;5053962;28;20033;-75
2022/10/01 07:34:56;;;;;;;10.73;8.60;;;;;;;9.90;90.12;101448.41;5054660;28;20033;-76
2022/10/01 07:37:22;;;;;;;12.13;9.43;;;;;;;9.98;89.48;101450.34;5054934;28;20037;-74
2022/10/01 07:39:47;;;;;;;12.17;8.73;;;;;;;10.08;89.42;101448.50;5055002;28;20086;-72
2022/10/01 07:42:13;;;;;;;8.10;6.57;;;;;;;10.10;88.69;101438.53;5036108;28;20044;-75
2022/10/01 07:44:39;;;;;;;9.70;7.70;;;;;;;10.12;87.81;101439.28;5059016;28;20048;-77
2022/10/01 07:47:04;;;;;;;7.63;6.63;;;;;;;10.21;87.63;101446.41;5038125;28;20037;-78
2022/10/01 07:49:30;;;;;;;9.17;7.33;;;;;;;10.19;87.71;101432.38;5036690;28;20029;-78
2022/10/01 07:51:57;;;;;;;11.80;7.17;;;;;;;10.25;87.55;101431.00;5037140;28;20059;-77
2022/10/01 07:54:24;;;;;;;9.77;7.33;;;;;;;10.30;87.80;101427.91;5036674;28;20037;-72
2022/10/01 07:56:54;;;;;;;10.93;8.83;;;;;;;10.26;87.22;101437.16;5061459;28;20037;-75
2022/10/01 07:59:25;;;;;;;13.97;8.57;;;;;;;10.18;87.57;101425.38;5054053;28;20091;-73
2022/10/01 08:01:53;;;;;;;9.27;7.30;;;;;;;10.18;87.99;101433.38;5037098;28;20044;-74
2022/10/01 08:07:06;;;;;;;8.10;6.67;;;;;;;9.96;87.66;101424.84;5047149;28;20167;-74
2022/10/01 08:09:32;;;;;;;7.67;6.60;;;;;;;9.92;88.38;101427.81;5029382;28;20977;-73
2022/10/01 08:11:57;;;;;;;10.93;7.43;;;;;;;9.86;88.76;101425.72;5022315;28;20034;-72
2022/10/01 08:14:24;;;;;;;9.83;7.63;;;;;;;9.79;89.20;101415.75;5045874;28;20392;-76
2022/10/01 08:16:49;;;;;;;8.77;7.03;;;;;;;9.76;88.53;101414.22;5048542;28;20128;-73
2022/10/01 08:19:15;;;;;;;12.03;8.03;;;;;;;9.85;89.26;101428.53;5033955;28;20048;-73
2022/10/01 08:21:43;;;;;;;10.20;7.70;;;;;;;9.92;88.81;101432.28;5039872;28;20527;-71
2022/10/01 08:24:09;;;;;;;12.98;7.60;;;;;;;9.98;88.37;101430.88;5042303;28;20057;-72
2022/10/01 08:26:35;;;;;;;9.70;7.50;;;;;;;10.04;88.90;101433.81;5040668;28;20115;-72
2022/10/01 08:29:01;;;;;;;11.47;8.20;;;;;;;10.02;89.10;101419.81;5025321;28;20025;-72
2022/10/01 08:31:27;;;;;;;10.73;7.43;;;;;;;10.10;88.93;101429.72;5044101;28;20433;-73
2022/10/01 08:33:53;;;;;;;15.43;9.03;;;;;;;10.07;88.71;101417.53;5026705;28;20029;-73
2022/10/01 08:36:19;;;;;;;11.43;7.47;;;;;;;10.15;88.48;101424.84;5023401;28;20064;-74
2022/10/01 08:38:46;;;;;;;11.90;9.03;;;;;;;9.97;88.46;101384.81;5028270;28;20063;-71
2022/10/01 08:41:33;;;;;;;11.30;7.83;;;;;;;10.24;87.33;101422.16;5023975;28;20564;-74
2022/10/01 08:44:01;;;;;;;8.53;6.10;;;;;;;10.23;86.49;101423.16;5042293;28;20034;-72
2022/10/01 08:46:33;;;;;;;10.03;6.40;;;;;;;10.24;86.53;101419.50;5044371;28;20377;-72
2022/10/01 08:49:07;;;;;;;10.83;7.20;;;;;;;10.24;86.92;101418.66;5026102;28;20392;-74
2022/10/01 08:51:59;;;;;;;12.60;7.20;;;;;;;10.22;87.40;101415.31;5018124;28;20045;-73
2022/10/01 08:54:45;;;;;;;11.13;6.53;;;;;;;10.24;86.85;101406.19;5052390;28;20033;-75
2022/10/01 08:57:22;;;;;;;7.07;6.23;;;;;;;10.05;85.50;101368.94;5022442;28;20037;-75
2022/10/01 08:59:52;;;;;;;9.77;5.63;;;;;;;10.32;85.07;101415.28;5037584;28;20041;-74
2022/10/01 09:02:22;;;;;;;9.60;6.93;;;;;;;10.33;85.55;101407.13;5029152;28;20504;-74
2022/10/01 09:04:53;;;;;;;11.03;6.97;;;;;;;10.41;85.42;101399.28;5039665;28;20136;-75
2022/10/01 09:07:30;;;;;;;10.73;7.87;;;;;;;10.48;84.83;101399.53;5045442;28;20191;-73
2022/10/01 09:10:11;;;;;;;12.15;7.95;;;;;;;10.56;84.92;101402.28;5042995;28;20037;-73
2022/10/01 09:12:49;;;;;;;10.83;8.20;;;;;;;10.59;84.37;101410.00;5023603;28;20118;-74
2022/10/01 09:15:33;;;;;;;;;;;;;;;10.66;84.92;101408.41;5025966;28;20036;-74
2022/10/01 09:18:27;;;;;;;9.50;7.00;;;;;;;10.67;84.92;101407.41;5044095;28;19921;-77
